createdAt,value
2022-12-19T00:00:32.117Z,31.17
2022-12-19T00:03:00.627Z,30.10
2022-12-19T00:05:29.136Z,31.35
2022-12-19T00:07:58.067Z,33.53
2022-12-19T00:10:27.786Z,33.05
2022-12-19T00:12:56.142Z,28.45
2022-12-19T00:15:24.608Z,26.60
2022-12-19T00:17:52.941Z,31.35
2022-12-19T00:20:21.272Z,32.72
2022-12-19T00:22:49.843Z,29.98
2022-12-19T00:25:24.292Z,30.63
2022-12-19T00:27:53.264Z,33.03
2022-12-19T00:30:21.551Z,31.60
2022-12-19T00:32:50.133Z,33.30
2022-12-19T00:35:18.786Z,33.10
2022-12-19T00:37:49.570Z,31.40
2022-12-19T00:40:18.589Z,30.27
2022-12-19T00:42:53.243Z,33.55
2022-12-19T00:45:22.666Z,33.35
2022-12-19T00:47:51.001Z,33.38
2022-12-19T00:50:19.280Z,36.10
2022-12-19T00:52:47.687Z,33.67
2022-12-19T00:55:19.029Z,32.15
2022-12-19T00:57:47.748Z,30.30
2022-12-19T01:00:19.537Z,34.83
2022-12-19T01:02:47.938Z,31.38
2022-12-19T01:05:16.381Z,30.40
2022-12-19T01:07:44.633Z,37.22
2022-12-19T01:10:12.876Z,30.52
2022-12-19T01:12:47.349Z,32.35
2022-12-19T01:15:21.561Z,30.27
2022-12-19T01:17:50.711Z,26.15
2022-12-19T01:20:29.979Z,27.13
2022-12-19T01:23:00.506Z,28.42
2022-12-19T01:25:29.363Z,32.65
2022-12-19T01:27:58.729Z,33.20
2022-12-19T01:30:29.244Z,30.27
2022-12-19T01:33:00.351Z,32.67
2022-12-19T01:35:29.441Z,32.17
2022-12-19T01:38:06.579Z,36.13
2022-12-19T01:40:37.743Z,33.08
2022-12-19T01:43:07.111Z,32.55
2022-12-19T01:45:45.342Z,34.83
2022-12-19T01:48:34.326Z,33.92
2022-12-19T01:51:27.782Z,33.30
2022-12-19T01:54:02.290Z,36.40
2022-12-19T01:56:35.636Z,36.40
2022-12-19T01:59:10.064Z,32.47
2022-12-19T02:01:51.164Z,33.90
2022-12-19T02:04:21.729Z,31.40
2022-12-19T02:06:51.387Z,33.45
2022-12-19T02:09:20.286Z,36.38
2022-12-19T02:11:48.597Z,37.75
2022-12-19T02:14:17.183Z,38.20
2022-12-19T02:17:26.644Z,40.95
2022-12-19T02:20:06.982Z,36.85
2022-12-19T02:23:12.114Z,32.47
2022-12-19T02:26:27.971Z,35.47
2022-12-19T02:29:25.206Z,37.80
2022-12-19T02:32:06.061Z,36.35
2022-12-19T02:35:08.314Z,38.63
2022-12-19T02:37:46.606Z,39.38
2022-12-19T02:40:40.613Z,41.42
2022-12-19T02:43:11.661Z,37.95
2022-12-19T02:45:42.508Z,42.92
2022-12-19T02:48:13.059Z,40.92
2022-12-19T02:50:50.180Z,44.78
2022-12-19T02:53:22.369Z,40.65
2022-12-19T02:56:10.419Z,40.83
2022-12-19T02:59:15.640Z,36.42
2022-12-19T03:01:51.263Z,43.37
2022-12-19T03:04:27.182Z,40.75
2022-12-19T03:07:37.096Z,40.67
2022-12-19T03:10:12.595Z,41.65
2022-12-19T03:12:52.137Z,43.00
2022-12-19T03:15:22.206Z,40.95
2022-12-19T03:17:50.942Z,41.38
2022-12-19T03:20:53.979Z,41.22
2022-12-19T03:23:22.976Z,43.63
2022-12-19T03:25:56.466Z,42.85
2022-12-19T03:28:35.641Z,41.78
2022-12-19T03:31:06.444Z,44.90
2022-12-19T03:33:36.570Z,43.03
2022-12-19T03:36:09.399Z,38.38
2022-12-19T03:38:39.655Z,38.85
2022-12-19T03:41:11.175Z,37.28
2022-12-19T03:43:41.411Z,36.63
2022-12-19T03:46:23.422Z,31.55
2022-12-19T03:48:54.334Z,32.70
2022-12-19T03:51:41.561Z,32.45
2022-12-19T03:54:20.257Z,32.17
2022-12-19T03:56:51.314Z,28.77
2022-12-19T03:59:32.933Z,31.65
2022-12-19T04:02:02.967Z,30.30
2022-12-19T04:04:35.019Z,29.40
2022-12-19T04:07:05.253Z,30.52
2022-12-19T04:09:35.176Z,29.80
2022-12-19T04:12:15.420Z,28.60
2022-12-19T04:14:44.460Z,29.40
2022-12-19T04:17:21.551Z,29.17
2022-12-19T04:20:13.061Z,28.35
2022-12-19T04:22:48.562Z,27.80
2022-12-19T04:25:23.969Z,26.05
2022-12-19T04:28:01.271Z,26.10
2022-12-19T04:30:29.900Z,24.88
2022-12-19T04:33:05.348Z,26.20
2022-12-19T04:35:36.755Z,29.17
2022-12-19T04:38:05.684Z,26.75
2022-12-19T04:40:41.239Z,29.50
2022-12-19T04:45:38.827Z,32.03
2022-12-19T04:48:08.188Z,29.77
2022-12-19T04:50:37.846Z,30.95
2022-12-19T04:53:07.096Z,30.48
2022-12-19T04:55:35.675Z,31.70
2022-12-19T04:58:06.629Z,28.83
2022-12-19T05:00:35.820Z,31.10
2022-12-19T05:03:04.398Z,28.98
2022-12-19T05:05:32.921Z,28.42
2022-12-19T05:08:01.189Z,27.25
2022-12-19T05:10:29.487Z,24.48
2022-12-19T05:12:57.888Z,25.38
2022-12-19T05:15:26.201Z,27.33
2022-12-19T05:17:54.533Z,30.55
2022-12-19T05:20:23.016Z,24.27
2022-12-19T05:22:51.676Z,25.70
2022-12-19T05:25:19.981Z,23.77
2022-12-19T05:27:48.302Z,27.50
2022-12-19T05:30:16.797Z,24.58
2022-12-19T05:32:45.136Z,23.92
2022-12-19T05:35:13.566Z,28.98
2022-12-19T05:37:42.064Z,25.08
2022-12-19T05:40:11.189Z,27.85
2022-12-19T05:42:39.625Z,23.60
2022-12-19T05:45:08.562Z,24.23
2022-12-19T05:47:38.015Z,23.95
2022-12-19T05:50:07.173Z,22.85
2022-12-19T05:52:35.610Z,22.88
2022-12-19T05:55:04.232Z,27.08
2022-12-19T05:57:32.671Z,23.08
2022-12-19T06:00:01.199Z,23.02
2022-12-19T06:02:34.453Z,21.30
2022-12-19T06:05:02.806Z,24.13
2022-12-19T06:07:31.481Z,24.95
2022-12-19T06:09:59.879Z,23.33
2022-12-19T06:12:28.288Z,25.98
2022-12-19T06:14:56.592Z,24.70
2022-12-19T06:17:24.947Z,23.45
2022-12-19T06:19:53.285Z,22.20
2022-12-19T06:22:21.639Z,23.60
2022-12-19T06:24:50.040Z,24.23
2022-12-19T06:27:18.365Z,25.13
2022-12-19T06:29:46.656Z,23.20
2022-12-19T06:32:15.008Z,22.60
2022-12-19T06:37:31.643Z,27.52
2022-12-19T06:39:59.936Z,34.65
2022-12-19T06:42:28.390Z,38.70
2022-12-19T06:44:57.440Z,37.03
2022-12-19T06:47:26.519Z,34.80
2022-12-19T06:49:55.104Z,37.30
2022-12-19T06:52:23.462Z,35.22
2022-12-19T06:54:51.811Z,36.60
2022-12-19T06:57:20.130Z,39.53
2022-12-19T06:59:48.444Z,37.60
2022-12-19T07:02:28.677Z,40.78
2022-12-19T07:05:03.006Z,38.78
2022-12-19T07:07:31.478Z,39.28
2022-12-19T07:10:00.044Z,35.28
2022-12-19T07:12:28.441Z,35.92
2022-12-19T07:14:56.924Z,30.67
2022-12-19T07:17:26.956Z,32.22
2022-12-19T07:19:57.175Z,37.20
2022-12-19T07:22:27.798Z,34.15
2022-12-19T07:24:57.492Z,29.35
2022-12-19T07:27:31.743Z,35.40
2022-12-19T07:30:05.384Z,29.08
2022-12-19T07:32:33.669Z,31.67
2022-12-19T07:35:02.654Z,29.30
2022-12-19T07:37:31.002Z,29.45
2022-12-19T07:39:59.322Z,27.38
2022-12-19T07:42:32.291Z,25.73
2022-12-19T07:45:02.359Z,25.27
2022-12-19T07:47:30.823Z,26.27
2022-12-19T07:49:59.192Z,22.23
2022-12-19T07:52:27.810Z,22.60
2022-12-19T07:54:56.191Z,22.98
2022-12-19T07:57:24.534Z,22.83
2022-12-19T07:59:52.925Z,24.02
2022-12-19T08:02:21.301Z,22.70
2022-12-19T08:04:49.852Z,22.15
2022-12-19T08:07:18.366Z,23.65
2022-12-19T08:09:46.815Z,23.17
2022-12-19T08:12:15.138Z,24.30
2022-12-19T08:14:43.500Z,21.15
2022-12-19T08:17:20.355Z,23.83
2022-12-19T08:19:49.243Z,22.48
2022-12-19T08:22:17.722Z,25.30
2022-12-19T08:24:46.361Z,22.55
2022-12-19T08:27:14.682Z,22.63
2022-12-19T08:29:42.990Z,23.52
2022-12-19T08:32:15.635Z,20.15
2022-12-19T08:34:47.434Z,23.73
2022-12-19T08:37:15.857Z,20.67
2022-12-19T08:39:44.286Z,23.25
2022-12-19T08:42:12.612Z,24.73
2022-12-19T08:44:41.043Z,21.95
2022-12-19T08:47:10.533Z,22.20
2022-12-19T08:49:38.977Z,25.48
2022-12-19T08:52:07.287Z,26.83
2022-12-19T08:54:35.600Z,23.65
2022-12-19T08:57:03.967Z,25.10
2022-12-19T08:59:32.509Z,23.05
2022-12-19T09:02:02.209Z,24.40
2022-12-19T09:05:57.539Z,23.30
2022-12-19T09:07:19.316Z,24.35
2022-12-19T09:09:47.665Z,24.00
2022-12-19T09:12:17.679Z,23.17
2022-12-19T09:14:46.046Z,23.05
2022-12-19T09:17:14.769Z,22.27
2022-12-19T09:19:47.419Z,23.10
2022-12-19T09:22:17.085Z,23.20
2022-12-19T09:24:45.563Z,21.90
2022-12-19T09:27:14.657Z,23.20
2022-12-19T09:29:43.967Z,19.80
2022-12-19T09:32:12.306Z,22.70
2022-12-19T09:34:40.684Z,25.02
2022-12-19T09:37:16.292Z,22.77
2022-12-19T09:39:49.568Z,23.13
2022-12-19T09:42:29.412Z,25.58
2022-12-19T09:45:06.981Z,28.13
2022-12-19T09:47:43.649Z,28.52
2022-12-19T09:50:46.644Z,30.58
2022-12-19T09:53:37.024Z,26.33
2022-12-19T09:56:12.133Z,27.23
2022-12-19T09:58:50.989Z,24.00
2022-12-19T10:01:30.892Z,23.13
2022-12-19T10:04:13.567Z,25.10
2022-12-19T10:07:14.037Z,24.23
2022-12-19T10:12:11.411Z,22.45
2022-12-19T10:12:47.909Z,22.92
2022-12-19T10:15:36.585Z,23.40
2022-12-19T10:18:43.331Z,23.48
2022-12-19T10:21:42.957Z,19.67
2022-12-19T10:24:35.538Z,21.80
2022-12-19T10:27:23.858Z,22.30
2022-12-19T10:30:18.454Z,21.30
2022-12-19T10:32:52.639Z,20.17
2022-12-19T10:35:23.484Z,22.20
2022-12-19T10:38:13.111Z,21.50
2022-12-19T10:41:11.483Z,21.80
2022-12-19T10:43:51.821Z,21.98
2022-12-19T10:46:38.530Z,20.15
2022-12-19T10:49:35.946Z,21.40
2022-12-19T10:52:08.941Z,22.30
2022-12-19T10:54:41.939Z,21.67
2022-12-19T10:57:27.198Z,20.95
2022-12-19T11:00:21.526Z,20.27
2022-12-19T11:02:52.711Z,21.67
2022-12-19T11:05:26.106Z,23.30
2022-12-19T11:08:09.587Z,21.27
2022-12-19T11:12:17.945Z,21.02
2022-12-19T11:18:11.660Z,22.58
2022-12-19T11:21:49.131Z,19.45
2022-12-19T11:29:17.975Z,21.30
2022-12-19T11:29:32.817Z,19.95
2022-12-19T11:30:39.082Z,22.20
2022-12-19T11:30:48.179Z,22.33
2022-12-19T11:34:24.735Z,20.80
2022-12-19T11:37:01.572Z,20.50
2022-12-19T11:39:48.123Z,25.38
2022-12-19T11:43:41.530Z,22.95
2022-12-19T11:45:56.589Z,20.75
2022-12-19T11:48:42.688Z,20.75
2022-12-19T11:51:37.245Z,21.73
2022-12-19T11:54:16.614Z,22.70
2022-12-19T11:56:45.242Z,22.05
2022-12-19T11:59:25.930Z,19.33
2022-12-19T12:02:20.760Z,22.10
2022-12-19T12:05:01.272Z,18.63
2022-12-19T12:09:18.265Z,22.42
2022-12-19T12:16:38.704Z,19.33
2022-12-19T12:25:07.903Z,21.10
2022-12-19T12:26:43.841Z,23.58
2022-12-19T12:30:49.331Z,24.15
2022-12-19T12:31:40.620Z,22.92
2022-12-19T12:31:47.317Z,21.95
2022-12-19T12:32:06.523Z,20.83
2022-12-19T12:35:40.503Z,23.85
2022-12-19T12:38:34.152Z,19.45
2022-12-19T12:41:05.987Z,20.73
2022-12-19T12:44:03.137Z,22.15
2022-12-19T12:46:43.330Z,22.20
2022-12-19T12:49:23.916Z,23.80
2022-12-19T12:51:53.269Z,25.60
2022-12-19T12:54:23.094Z,22.05
2022-12-19T12:56:51.452Z,24.73
2022-12-19T12:59:28.706Z,26.52
2022-12-19T13:02:19.057Z,25.23
2022-12-19T13:05:25.582Z,25.38
2022-12-19T13:07:55.338Z,24.10
2022-12-19T13:10:29.534Z,23.88
2022-12-19T13:13:14.638Z,28.17
2022-12-19T13:15:46.088Z,25.15
2022-12-19T13:18:32.898Z,4.97
2022-12-19T13:21:03.413Z,24.90
2022-12-19T13:23:31.774Z,22.77
2022-12-19T13:26:00.120Z,25.55
2022-12-19T13:28:28.460Z,22.35
2022-12-19T13:31:18.411Z,25.58
2022-12-19T13:33:56.084Z,21.25
2022-12-19T13:39:59.968Z,23.60
2022-12-19T13:40:32.514Z,27.35
2022-12-19T13:43:25.266Z,21.02
2022-12-19T13:46:03.589Z,21.25
2022-12-19T13:48:41.498Z,23.38
2022-12-19T13:51:11.796Z,24.70
2022-12-19T13:53:41.229Z,25.17
2022-12-19T13:56:21.262Z,25.27
2022-12-19T13:59:00.588Z,23.27
2022-12-19T14:01:35.004Z,24.45
2022-12-19T14:04:25.844Z,22.90
2022-12-19T14:07:20.125Z,23.23
2022-12-19T14:11:33.545Z,25.40
2022-12-19T14:13:47.550Z,5.03
2022-12-19T14:15:52.098Z,24.35
2022-12-19T14:18:44.286Z,22.95
2022-12-19T14:22:06.931Z,21.30
2022-12-19T14:24:23.945Z,21.20
2022-12-19T14:28:21.571Z,22.80
2022-12-19T14:30:30.702Z,24.88
2022-12-19T14:33:46.161Z,6.78
2022-12-19T14:36:06.158Z,22.02
2022-12-19T14:39:22.264Z,26.02
2022-12-19T14:42:01.954Z,22.25
2022-12-19T14:52:35.435Z,20.98
2022-12-19T14:54:01.313Z,22.30
2022-12-19T14:54:10.929Z,24.00
2022-12-19T14:54:50.610Z,20.83
2022-12-19T14:56:33.674Z,23.92
2022-12-19T14:59:18.585Z,26.70
2022-12-19T15:02:07.907Z,26.60
2022-12-19T15:04:50.972Z,29.02
2022-12-19T15:07:26.685Z,30.83
2022-12-19T15:11:05.356Z,26.90
2022-12-19T15:14:47.999Z,27.80
2022-12-19T15:16:31.677Z,24.65
2022-12-19T15:19:02.234Z,25.67
2022-12-19T15:21:32.297Z,25.70
2022-12-19T15:24:00.611Z,24.35
2022-12-19T15:26:49.325Z,24.77
2022-12-19T15:29:21.820Z,22.02
2022-12-19T15:31:50.954Z,22.27
2022-12-19T15:37:18.376Z,25.27
2022-12-19T15:39:46.837Z,24.60
2022-12-19T15:42:26.048Z,25.55
2022-12-19T15:44:57.354Z,6.78
2022-12-19T15:47:35.495Z,27.58
2022-12-19T15:50:15.875Z,25.13
2022-12-19T15:52:44.463Z,28.67
2022-12-19T15:55:18.046Z,24.55
2022-12-19T15:58:07.454Z,7.93
2022-12-19T16:00:38.279Z,10.45
2022-12-19T16:03:23.480Z,26.75
2022-12-19T16:05:53.941Z,25.42
2022-12-19T16:08:27.163Z,25.38
2022-12-19T16:11:01.472Z,28.27
2022-12-19T16:13:35.587Z,25.92
2022-12-19T16:16:11.237Z,30.50
2022-12-19T16:18:43.931Z,29.05
2022-12-19T16:21:34.559Z,28.85
2022-12-19T16:24:03.065Z,27.23
2022-12-19T16:26:41.565Z,27.85
2022-12-19T16:29:24.595Z,24.88
2022-12-19T16:31:54.072Z,28.20
2022-12-19T16:34:25.096Z,29.42
2022-12-19T16:36:53.720Z,31.45
2022-12-19T16:39:22.046Z,29.63
2022-12-19T16:41:50.983Z,32.17
2022-12-19T16:44:21.901Z,31.40
2022-12-19T16:46:51.723Z,30.70
2022-12-19T16:49:23.810Z,33.05
2022-12-19T16:51:52.768Z,31.40
2022-12-19T16:54:22.149Z,33.38
2022-12-19T16:56:57.683Z,33.08
2022-12-19T16:59:32.609Z,33.92
2022-12-19T17:02:02.023Z,30.45
2022-12-19T17:04:31.010Z,36.33
2022-12-19T17:07:00.105Z,36.67
2022-12-19T17:09:28.464Z,31.67
2022-12-19T17:12:02.486Z,36.20
2022-12-19T17:14:35.573Z,35.97
2022-12-19T17:17:07.322Z,38.35
2022-12-19T17:19:39.921Z,36.80
2022-12-19T17:22:14.232Z,39.88
2022-12-19T17:24:42.816Z,41.50
2022-12-19T17:27:11.332Z,39.00
2022-12-19T17:29:42.049Z,42.70
2022-12-19T17:32:23.617Z,44.17
2022-12-19T17:34:53.722Z,43.35
2022-12-19T17:37:22.592Z,42.00
2022-12-19T17:39:50.925Z,43.08
2022-12-19T17:42:27.916Z,43.50
2022-12-19T17:44:59.182Z,43.40
2022-12-19T17:47:30.351Z,43.88
2022-12-19T17:49:58.613Z,41.75
2022-12-19T17:52:26.973Z,44.40
2022-12-19T17:54:55.491Z,41.65
2022-12-19T17:57:24.044Z,40.50
2022-12-19T17:59:52.299Z,42.42
2022-12-19T18:02:22.491Z,46.55
2022-12-19T18:04:52.139Z,47.05
2022-12-19T18:07:21.079Z,45.80
2022-12-19T18:09:49.396Z,47.95
2022-12-19T18:12:17.737Z,48.35
2022-12-19T18:14:46.128Z,49.55
2022-12-19T18:17:17.243Z,48.42
2022-12-19T18:19:45.608Z,47.13
2022-12-19T18:22:15.168Z,46.28
2022-12-19T18:24:43.818Z,49.13
2022-12-19T18:27:12.552Z,50.08
2022-12-19T18:29:41.106Z,45.58
2022-12-19T18:32:19.811Z,50.63
2022-12-19T18:34:48.249Z,46.28
2022-12-19T18:37:17.068Z,53.47
2022-12-19T18:39:45.377Z,51.90
2022-12-19T18:42:23.328Z,45.58
2022-12-19T18:44:51.645Z,49.83
2022-12-19T18:47:24.470Z,46.75
2022-12-19T18:49:53.676Z,50.95
2022-12-19T18:52:22.043Z,53.60
2022-12-19T18:54:50.363Z,47.42
2022-12-19T18:57:18.634Z,52.70
2022-12-19T18:59:48.455Z,51.90
2022-12-19T19:02:28.437Z,52.05
2022-12-19T19:04:57.427Z,50.83
2022-12-19T19:07:25.887Z,54.20
2022-12-19T19:09:54.220Z,49.35
2022-12-19T19:12:22.970Z,56.85
2022-12-19T19:14:53.085Z,49.85
2022-12-19T19:17:30.050Z,51.40
2022-12-19T19:19:58.544Z,52.25
2022-12-19T19:22:27.008Z,51.55
2022-12-19T19:24:55.450Z,51.30
2022-12-19T19:27:23.819Z,55.15
2022-12-19T19:29:52.773Z,54.45
2022-12-19T19:32:21.274Z,47.30
2022-12-19T19:34:50.659Z,48.72
2022-12-19T19:37:19.310Z,53.33
2022-12-19T19:39:48.746Z,53.17
2022-12-19T19:42:19.632Z,51.05
2022-12-19T19:44:47.979Z,51.63
2022-12-19T19:47:17.209Z,49.78
2022-12-19T19:49:45.648Z,50.22
2022-12-19T19:52:14.031Z,55.05
2022-12-19T19:54:42.276Z,51.35
2022-12-19T19:57:10.643Z,50.47
2022-12-19T19:59:38.989Z,52.28
2022-12-19T20:02:09.449Z,53.80
2022-12-19T20:04:39.085Z,52.80
2022-12-19T20:07:08.095Z,53.10
2022-12-19T20:09:36.473Z,49.97
2022-12-19T20:12:05.238Z,51.75
2022-12-19T20:14:33.569Z,52.28
2022-12-19T20:17:01.842Z,48.45
2022-12-19T20:19:30.206Z,50.70
2022-12-19T20:21:59.494Z,50.45
2022-12-19T20:24:28.205Z,52.97
2022-12-19T20:26:56.616Z,52.80
2022-12-19T20:29:25.407Z,53.83
2022-12-19T20:31:53.872Z,51.30
2022-12-19T20:34:22.238Z,51.33
2022-12-19T20:36:50.732Z,53.28
2022-12-19T20:39:22.913Z,53.33
2022-12-19T20:41:52.845Z,50.85
2022-12-19T20:44:24.332Z,49.15
2022-12-19T20:46:54.048Z,55.55
2022-12-19T20:49:27.290Z,47.78
2022-12-19T20:51:55.726Z,51.67
2022-12-19T20:54:24.605Z,47.08
2022-12-19T20:56:52.930Z,40.90
2022-12-19T20:59:21.388Z,46.92
2022-12-19T21:01:49.851Z,48.97
2022-12-19T21:04:18.455Z,41.88
2022-12-19T21:06:46.844Z,46.03
2022-12-19T21:09:15.154Z,40.83
2022-12-19T21:11:43.486Z,43.63
2022-12-19T21:14:12.835Z,44.28
2022-12-19T21:16:41.199Z,40.40
2022-12-19T21:19:09.703Z,38.47
2022-12-19T21:21:38.015Z,38.45
2022-12-19T21:24:06.835Z,36.03
2022-12-19T21:26:35.229Z,36.33
2022-12-19T21:29:03.680Z,37.40
2022-12-19T21:31:32.488Z,35.97
2022-12-19T21:34:03.099Z,36.05
2022-12-19T21:36:32.515Z,39.38
2022-12-19T21:39:03.238Z,38.95
2022-12-19T21:41:32.534Z,39.03
2022-12-19T21:44:01.522Z,38.40
2022-12-19T21:46:33.834Z,38.42
2022-12-19T21:49:04.111Z,37.55
2022-12-19T21:51:33.515Z,34.90
2022-12-19T21:54:04.316Z,36.15
2022-12-19T21:56:39.816Z,33.15
2022-12-19T21:59:14.627Z,37.38
2022-12-19T22:01:44.742Z,33.80
2022-12-19T22:04:21.713Z,34.65
2022-12-19T22:06:51.491Z,33.25
2022-12-19T22:09:23.493Z,32.78
2022-12-19T22:11:51.966Z,33.17
2022-12-19T22:14:20.327Z,32.85
2022-12-19T22:16:48.796Z,34.58
2022-12-19T22:19:18.955Z,32.97
2022-12-19T22:21:48.388Z,33.22
2022-12-19T22:24:18.314Z,33.65
2022-12-19T22:26:46.807Z,34.55
2022-12-19T22:29:18.126Z,32.92
2022-12-19T22:31:48.000Z,36.42
2022-12-19T22:34:19.656Z,35.78
2022-12-19T22:36:49.954Z,33.35
2022-12-19T22:39:20.386Z,36.75
2022-12-19T22:41:49.240Z,33.03
2022-12-19T22:44:20.723Z,34.15
2022-12-19T22:46:49.732Z,38.45
2022-12-19T22:49:18.810Z,34.47
2022-12-19T22:51:47.236Z,35.50
2022-12-19T22:54:15.819Z,34.75
2022-12-19T22:56:44.383Z,35.20
2022-12-19T22:59:13.904Z,36.60
2022-12-19T23:01:44.242Z,37.20
2022-12-19T23:04:16.050Z,33.90
2022-12-19T23:06:45.377Z,36.00
2022-12-19T23:09:17.001Z,33.38
2022-12-19T23:11:48.612Z,35.72
2022-12-19T23:14:18.904Z,32.13
2022-12-19T23:16:47.739Z,36.53
2022-12-19T23:19:17.378Z,31.92
2022-12-19T23:21:46.015Z,32.53
2022-12-19T23:24:14.724Z,38.58
2022-12-19T23:26:43.409Z,32.15
2022-12-19T23:29:14.370Z,28.27
2022-12-19T23:31:45.772Z,30.67
2022-12-19T23:34:15.153Z,31.75
2022-12-19T23:37:13.116Z,31.70
2022-12-19T23:39:31.983Z,29.67
2022-12-19T23:42:00.717Z,32.40
2022-12-19T23:44:29.434Z,32.15
2022-12-19T23:47:02.901Z,29.35
2022-12-19T23:49:33.646Z,30.75
2022-12-19T23:52:02.423Z,35.17
2022-12-19T23:54:30.869Z,30.25
2022-12-19T23:56:59.357Z,31.48
2022-12-19T23:59:28.062Z,29.55
